Dobrodošli na spletni strani vremenske postaje Senovo. Vse informacije so informativnega značaja, saj vremenska postaja ni del državne mreže meteoroloških postaj. OBVESTILO: ZARADI TEHNIŠKIH TEŽAV JE VREMENSKA POSTAJA DO NADALJNEGA NEDOSEGLJIVA. HVALA ZA RAZUMEVANJE


Posebna pozornost v zvezi z vremenskimi dogajanji ni potrebna.    Posebna pozornost v zvezi z vremenskimi dogajanji ni potrebna.

Pogled proti Armezu več informacij Pogled proti Armezu


Lisca več informacij Lisca


Radar strel več informacij blitzortung!


Radar padavin več informacij rain snow radar


Obiščite še:

Template documentation
and downloads

And another site



METAR v bližini

   
LJLJ - Ljubljana
Posodobljeno: 22-09-2017 11:30
pretežno oblačno  
pretežno oblačno  
   Veter: Brezveterje
Veter: Brezveterje
Temperatura: 14°C
Točka rosišča: 7°C
Vlažnost: 63%
Zračni tlak: 1022 hPa
Oblaki: pretežno oblačno
Vidljivost: More than 10 km
Podrobnosti o oblakih: nekaj oblakov 1828.8 m,
pretežno oblačno 2743.2 m
LJLJ 220930Z 00000KT 9999 FEW060 BKN090 14/07 Q1022 NOSIG
LJCE - Cerklje ob Krki
Posodobljeno: 22-09-2017 11:30
jasno  
jasno  
   Veter: Zahod 11.1 km/h
Veter: Zahod 11.1 km/h
Temperatura: 17°C
Točka rosišča: 8°C
Vlažnost: 56%
Zračni tlak: 1021 hPa
Vidljivost: More than 10 km
Podrobnosti o oblakih: jasno
LJCE 220930Z 26006KT 230V300 CAVOK 17/08 Q1021 RMK BLU
LJMB - Maribor
Posodobljeno: 22-09-2017 11:30
jasno  
jasno  
   Veter: različen 3.7 km/h
Veter: različen 3.7 km/h
Temperatura: 18°C
Točka rosišča: 5°C
Vlažnost: 43%
Zračni tlak: 1021 hPa
Vidljivost: More than 10 km
Podrobnosti o oblakih: jasno
LJMB 220930Z VRB02KT CAVOK 18/05 Q1021
LJPZ - Portorož
Posodobljeno: 22-09-2017 11:30
nekaj oblakov  
nekaj oblakov  
   Veter: SZ 5.6 km/h
Veter: SZ 5.6 km/h
Temperatura: 21°C
Točka rosišča: 10°C
Vlažnost: 50%
Zračni tlak: 1021 hPa
Oblaki: nekaj oblakov
Vidljivost: More than 10 km
Podrobnosti o oblakih: nekaj oblakov 1524 m
LJPZ 220930Z 32003KT 280V040 9999 FEW050 21/10 Q1021
LDRI - Rijeka, Airport, Croatia
Posodobljeno: 22-09-2017 11:30
jasno  
jasno  
   Veter: VJV 7.4 km/h
Veter: VJV 7.4 km/h
Temperatura: 20°C
Točka rosišča: 5°C
Vlažnost: 38%
Zračni tlak: 1021 hPa
Vidljivost: More than 10 km
Podrobnosti o oblakih: jasno
LDRI 220930Z 11004KT 060V150 CAVOK 20/05 Q1021
LOWK - Klagenfurt, Airport, Avstia
Posodobljeno: 22-09-2017 11:20
pretežno oblačno  
pretežno oblačno  
   Veter: različen 3.7 km/h
Veter: različen 3.7 km/h
Temperatura: 11°C
Točka rosišča: 7°C
Vlažnost: 77%
Zračni tlak: 1022 hPa
Oblaki: pretežno oblačno
Vidljivost: More than 10 km
Podrobnosti o oblakih: nekaj oblakov 1219.2 m,
pretežno oblačno 2743.2 m
LOWK 220920Z VRB02KT 9999 FEW040 BKN090 11/07 Q1022 NOSIG

Script developed by  Saratoga-weather.org Adapted for the template by  Weerstation Leuven

Vremenski podatki so objavljeni na:

WeatherCloud

Weather Underground

AWEKAS

HAMweather, WeatherForYou, PWS Weather

MapView

Geostik

Slovenia weather network

Oprema, ki se uporablja:

Vremenski program
Cumulus

Cumulus